Time;durP1;ratioP1;P1;durP2;ratioP2;P2;SDS_P1;SDS_P2;PMS_P1;PMS_P2;Temp;Humidity;BMP_temperature;BMP_pressure;BME280_temperature;BME280_humidity;BME280_pressure;Samples;Min_cycle;Max_cycle;Signal;HPM_P1;HPM_P2
2023/05/30 00:00:43;;;;;;;11.50;2.97;;;11.80;99.90;;;;;;5034736;28;20060;-88
2023/05/30 00:03:29;;;;;;;15.65;2.92;;;11.80;99.90;;;;;;5052676;28;20132;-85
2023/05/30 00:06:16;;;;;;;14.07;3.60;;;11.70;99.90;;;;;;5035827;28;20053;-82
2023/05/30 00:09:03;;;;;;;10.07;2.80;;;11.70;99.90;;;;;;5036191;28;20056;-80
2023/05/30 00:11:49;;;;;;;14.90;3.88;;;11.70;99.90;;;;;;5054012;28;20482;-86
2023/05/30 00:14:36;;;;;;;9.18;2.78;;;11.70;99.90;;;;;;5053216;28;20827;-83
2023/05/30 00:17:23;;;;;;;11.07;3.03;;;11.70;99.90;;;;;;5022474;28;20051;-82
2023/05/30 00:20:09;;;;;;;11.38;3.05;;;11.70;99.90;;;;;;5039089;28;20041;-83
2023/05/30 00:22:58;;;;;;;9.25;2.63;;;11.70;99.90;;;;;;5052318;28;20469;-86
2023/05/30 00:25:45;;;;;;;12.50;3.47;;;11.70;99.90;;;;;;5052598;28;20496;-86
2023/05/30 00:28:31;;;;;;;10.60;2.42;;;11.70;99.90;;;;;;5032867;28;20045;-78
2023/05/30 00:31:18;;;;;;;13.13;2.60;;;11.60;99.90;;;;;;5052336;28;20474;-79
2023/05/30 00:34:04;;;;;;;12.23;3.40;;;11.70;99.90;;;;;;5053669;28;20060;-82
2023/05/30 00:36:50;;;;;;;11.52;2.58;;;11.70;99.90;;;;;;5052371;28;20160;-85
2023/05/30 00:39:36;;;;;;;8.55;2.53;;;11.70;99.90;;;;;;5053447;28;20463;-82
2023/05/30 00:42:22;;;;;;;13.63;3.17;;;11.60;99.90;;;;;;5034599;28;20053;-84
2023/05/30 00:45:09;;;;;;;13.93;2.97;;;11.70;99.90;;;;;;5052523;28;20394;-85
2023/05/30 00:47:55;;;;;;;13.43;2.95;;;11.70;99.90;;;;;;5036154;28;20087;-78
2023/05/30 00:50:42;;;;;;;9.65;2.60;;;11.60;99.90;;;;;;5052063;28;20210;-81
2023/05/30 00:53:28;;;;;;;10.10;2.97;;;11.60;99.90;;;;;;5051728;28;20045;-82
2023/05/30 00:56:15;;;;;;;13.82;3.70;;;11.60;99.90;;;;;;5054556;28;20131;-81
2023/05/30 00:59:02;;;;;;;13.25;3.08;;;11.60;99.90;;;;;;5036201;28;20085;-80
2023/05/30 01:01:48;;;;;;;12.00;3.00;;;11.60;99.90;;;;;;5053808;28;20045;-84
2023/05/30 01:04:34;;;;;;;13.32;3.00;;;11.60;99.90;;;;;;5034462;28;20475;-87
2023/05/30 01:07:20;;;;;;;15.55;3.53;;;11.70;99.90;;;;;;5033179;28;20068;-80
2023/05/30 01:10:07;;;;;;;18.85;3.15;;;11.70;99.90;;;;;;5033891;28;20056;-82
2023/05/30 01:13:22;;;;;;;17.08;3.40;;;11.60;99.90;;;;;;5052560;28;20084;-83
2023/05/30 01:16:14;;;;;;;12.95;2.83;;;11.70;99.90;;;;;;5052319;28;20060;-83
2023/05/30 01:19:46;;;;;;;14.00;2.97;;;11.70;99.90;;;;;;5036569;28;20052;-82
2023/05/30 01:23:00;;;;;;;11.90;3.15;;;11.70;99.90;;;;;;5051483;28;20093;-80
2023/05/30 01:25:59;;;;;;;14.45;2.85;;;11.70;99.90;;;;;;5038574;28;20051;-78
2023/05/30 01:28:48;;;;;;;20.23;3.40;;;11.70;99.90;;;;;;5051874;28;20049;-82
2023/05/30 01:31:34;;;;;;;13.15;3.65;;;11.70;99.90;;;;;;5034930;28;20503;-81
2023/05/30 01:34:21;;;;;;;7.28;3.20;;;11.70;99.90;;;;;;5048619;28;20055;-82
2023/05/30 01:37:07;;;;;;;13.77;3.30;;;11.70;99.90;;;;;;5051384;28;20060;-81
2023/05/30 01:39:53;;;;;;;13.82;4.10;;;11.70;99.90;;;;;;5051820;28;20044;-79
2023/05/30 01:42:40;;;;;;;15.30;4.07;;;11.70;99.90;;;;;;5037537;28;20044;-80
2023/05/30 01:45:38;;;;;;;12.15;3.67;;;11.70;99.90;;;;;;5033921;28;20113;-81
2023/05/30 01:48:38;;;;;;;13.40;4.22;;;11.70;99.90;;;;;;5052159;28;20483;-82
2023/05/30 01:51:42;;;;;;;9.88;2.65;;;11.70;99.90;;;;;;5051691;28;20060;-79
2023/05/30 01:54:30;;;;;;;17.60;3.58;;;11.70;99.90;;;;;;5041098;28;20076;-83
2023/05/30 01:57:17;;;;;;;13.27;2.45;;;11.70;99.90;;;;;;5051276;28;20045;-79
2023/05/30 02:00:05;;;;;;;15.18;3.22;;;11.70;99.90;;;;;;5033797;28;20500;-86
2023/05/30 02:02:51;;;;;;;13.05;3.58;;;11.70;99.90;;;;;;5037158;28;20052;-82
2023/05/30 02:05:37;;;;;;;19.98;3.40;;;11.70;99.90;;;;;;5051236;28;20119;-84
2023/05/30 02:08:23;;;;;;;10.68;3.58;;;11.70;99.90;;;;;;5039214;28;20084;-80
2023/05/30 02:11:09;;;;;;;17.83;3.92;;;11.70;99.90;;;;;;5056857;28;20484;-79
2023/05/30 02:13:57;;;;;;;13.60;3.05;;;11.70;99.90;;;;;;5054318;28;20052;-86
2023/05/30 02:16:44;;;;;;;17.23;3.45;;;11.80;99.90;;;;;;5050672;28;20103;-81
2023/05/30 02:19:30;;;;;;;17.05;3.17;;;11.80;99.90;;;;;;5037149;28;20052;-83
2023/05/30 02:22:20;;;;;;;11.63;3.03;;;11.80;99.90;;;;;;5051440;28;20132;-79
2023/05/30 02:25:09;;;;;;;16.83;3.60;;;11.80;99.90;;;;;;5051039;28;20048;-82
2023/05/30 02:27:55;;;;;;;13.95;3.03;;;11.80;99.90;;;;;;5052837;28;20151;-81
2023/05/30 02:30:41;;;;;;;13.65;4.15;;;11.70;99.90;;;;;;5050657;28;20040;-86
2023/05/30 02:33:27;;;;;;;18.40;3.83;;;11.70;99.90;;;;;;5050477;28;20049;-86
2023/05/30 02:36:13;;;;;;;16.95;4.15;;;11.70;99.90;;;;;;5032635;28;20060;-84
2023/05/30 02:39:10;;;;;;;14.30;2.92;;;11.70;99.90;;;;;;5050109;28;20056;-85
2023/05/30 02:41:57;;;;;;;15.90;3.13;;;11.70;99.90;;;;;;5051679;28;20045;-80
2023/05/30 02:44:43;;;;;;;15.65;3.17;;;11.70;99.90;;;;;;5052425;28;20144;-78
2023/05/30 02:47:30;;;;;;;13.23;2.78;;;11.70;99.90;;;;;;5055685;28;20052;-86
2023/05/30 02:50:16;;;;;;;18.25;3.83;;;11.70;99.90;;;;;;5041118;28;20052;-78
2023/05/30 02:53:02;;;;;;;16.00;4.03;;;11.70;99.90;;;;;;5050165;28;20048;-84
2023/05/30 02:55:48;;;;;;;13.90;3.35;;;11.70;99.90;;;;;;5050215;28;20118;-83
2023/05/30 02:58:34;;;;;;;16.08;3.55;;;11.70;99.90;;;;;;5050711;28;20049;-80
2023/05/30 03:01:20;;;;;;;12.98;2.95;;;11.70;99.90;;;;;;5042943;28;20102;-82
2023/05/30 03:04:07;;;;;;;12.65;4.05;;;11.70;99.90;;;;;;5049760;28;20098;-84
2023/05/30 03:06:53;;;;;;;19.27;3.50;;;11.80;99.90;;;;;;5035781;28;20081;-82
2023/05/30 03:09:40;;;;;;;20.00;3.85;;;11.80;99.90;;;;;;5036441;28;20059;-79
2023/05/30 03:12:26;;;;;;;21.88;4.28;;;11.80;99.90;;;;;;5022052;28;20065;-80
2023/05/30 03:15:13;;;;;;;15.23;3.00;;;11.80;99.90;;;;;;5037193;28;20053;-80
2023/05/30 03:17:59;;;;;;;14.20;3.20;;;11.80;99.90;;;;;;5051517;28;20048;-80
2023/05/30 03:20:45;;;;;;;17.42;3.85;;;11.80;99.90;;;;;;5050385;28;20053;-85
2023/05/30 03:23:31;;;;;;;13.93;3.38;;;11.90;99.90;;;;;;5050546;28;20051;-78
2023/05/30 03:26:17;;;;;;;14.98;3.55;;;11.90;99.90;;;;;;5051773;28;20087;-78
2023/05/30 03:29:03;;;;;;;14.05;3.10;;;11.90;99.90;;;;;;5049346;28;20045;-80
2023/05/30 03:31:49;;;;;;;12.43;3.53;;;11.90;99.90;;;;;;5036656;28;20052;-83
2023/05/30 03:34:36;;;;;;;13.50;3.83;;;11.90;99.90;;;;;;5054177;28;20052;-78
2023/05/30 03:37:22;;;;;;;11.23;2.90;;;11.90;99.90;;;;;;5053263;28;20194;-79
2023/05/30 03:40:10;;;;;;;11.30;3.92;;;11.90;99.90;;;;;;5074322;28;20055;-81
2023/05/30 03:42:56;;;;;;;10.25;2.65;;;11.90;99.90;;;;;;5073302;28;20087;-77
2023/05/30 03:45:42;;;;;;;15.38;3.03;;;11.90;99.90;;;;;;5054231;28;20052;-79
2023/05/30 03:48:28;;;;;;;13.23;3.17;;;11.90;99.90;;;;;;5072156;28;20105;-78
2023/05/30 03:51:15;;;;;;;9.15;2.45;;;11.90;99.90;;;;;;5055196;28;20201;-79
2023/05/30 03:54:01;;;;;;;15.10;3.95;;;11.90;99.90;;;;;;5072976;28;20053;-80
2023/05/30 03:56:48;;;;;;;13.25;3.83;;;11.90;99.90;;;;;;5044192;28;20492;-82
2023/05/30 03:59:34;;;;;;;12.48;3.28;;;11.90;99.90;;;;;;5075559;28;20112;-83
2023/05/30 04:02:20;;;;;;;17.48;4.07;;;11.90;99.90;;;;;;5055332;28;20048;-79
2023/05/30 04:05:06;;;;;;;8.68;2.25;;;11.90;99.90;;;;;;5058507;28;20403;-83
2023/05/30 04:07:52;;;;;;;15.15;3.08;;;11.90;99.90;;;;;;5054462;28;20052;-85
2023/05/30 04:10:39;;;;;;;14.50;2.67;;;11.90;99.90;;;;;;5072896;28;20499;-86
2023/05/30 04:13:25;;;;;;;9.90;2.75;;;11.90;99.90;;;;;;5073276;28;20131;-83
2023/05/30 04:16:11;;;;;;;15.20;2.88;;;11.90;99.90;;;;;;5054055;28;20048;-83
2023/05/30 04:18:57;;;;;;;7.80;2.15;;;11.90;99.90;;;;;;5072568;28;20092;-86
2023/05/30 04:21:43;;;;;;;13.32;3.67;;;11.90;99.90;;;;;;5059583;28;20048;-81
2023/05/30 04:24:29;;;;;;;6.68;2.10;;;11.90;99.90;;;;;;5060720;28;20045;-85
2023/05/30 04:27:17;;;;;;;13.98;3.03;;;12.00;99.90;;;;;;5072076;28;20125;-82
2023/05/30 04:30:04;;;;;;;10.73;2.17;;;12.00;99.90;;;;;;5072665;28;20044;-82
2023/05/30 04:32:50;;;;;;;10.13;2.72;;;12.00;99.90;;;;;;5075241;28;20048;-79
2023/05/30 04:35:39;;;;;;;10.57;2.50;;;12.00;99.90;;;;;;5055177;28;20055;-81
2023/05/30 04:38:26;;;;;;;8.00;2.17;;;12.00;99.90;;;;;;5071687;28;20051;-82
2023/05/30 04:41:19;;;;;;;16.90;3.00;;;12.00;99.90;;;;;;5040818;28;20500;-81
2023/05/30 04:44:06;;;;;;;7.50;2.35;;;12.00;99.90;;;;;;5058087;28;20044;-83
2023/05/30 04:46:52;;;;;;;6.72;2.40;;;12.00;99.90;;;;;;5073213;28;20060;-80
2023/05/30 04:49:39;;;;;;;12.27;3.80;;;12.00;99.90;;;;;;5072296;28;20052;-77
2023/05/30 04:52:25;;;;;;;11.50;3.13;;;12.10;99.90;;;;;;5071050;28;20190;-82
2023/05/30 04:55:12;;;;;;;8.27;1.95;;;12.10;99.90;;;;;;5072384;28;20113;-83
2023/05/30 04:57:58;;;;;;;13.60;3.17;;;12.10;99.90;;;;;;5054886;28;20095;-79
2023/05/30 05:00:44;;;;;;;10.02;2.28;;;12.00;99.90;;;;;;5071958;28;20144;-82
2023/05/30 05:03:31;;;;;;;8.15;2.13;;;12.00;99.90;;;;;;5072664;28;20067;-81
2023/05/30 05:06:17;;;;;;;8.68;2.03;;;12.10;99.90;;;;;;5076268;28;20123;-80
2023/05/30 05:09:03;;;;;;;6.50;1.55;;;12.10;99.90;;;;;;5072908;28;20055;-84
2023/05/30 05:11:50;;;;;;;8.93;1.80;;;12.10;99.90;;;;;;5057249;28;20411;-85
2023/05/30 05:14:36;;;;;;;6.35;1.70;;;12.00;99.90;;;;;;5072705;28;20041;-84
2023/05/30 05:17:22;;;;;;;6.35;2.03;;;12.10;99.90;;;;;;5071644;28;20048;-84
2023/05/30 05:20:09;;;;;;;7.28;2.42;;;12.10;99.90;;;;;;5054049;28;20403;-81
2023/05/30 05:22:56;;;;;;;11.57;2.35;;;12.10;99.90;;;;;;5054447;28;20553;-81
2023/05/30 05:25:42;;;;;;;12.88;1.95;;;12.00;99.90;;;;;;5074226;28;20052;-79
2023/05/30 05:28:28;;;;;;;17.17;2.88;;;12.10;99.90;;;;;;5070790;28;20079;-84
2023/05/30 05:31:15;;;;;;;10.10;2.17;;;12.10;99.90;;;;;;5071698;28;20052;-83
2023/05/30 05:34:01;;;;;;;8.27;2.05;;;12.00;99.90;;;;;;5074541;28;20056;-82
2023/05/30 05:36:47;;;;;;;8.90;1.55;;;12.10;99.90;;;;;;5031672;28;20168;-78
2023/05/30 05:39:34;;;;;;;8.30;2.10;;;12.10;99.90;;;;;;5023383;28;20045;-82
2023/05/30 05:42:20;;;;;;;6.07;2.40;;;12.10;99.90;;;;;;5031603;28;20089;-80
2023/05/30 05:45:07;;;;;;;6.80;2.80;;;12.10;99.90;;;;;;5031711;28;20053;-79
2023/05/30 05:47:53;;;;;;;8.27;2.28;;;12.20;99.90;;;;;;5030949;28;20523;-81
2023/05/30 05:50:39;;;;;;;7.55;2.05;;;12.20;99.90;;;;;;5038140;28;20037;-83
2023/05/30 05:53:25;;;;;;;8.80;1.80;;;12.20;99.90;;;;;;5051198;28;20807;-80
2023/05/30 05:56:11;;;;;;;6.05;1.88;;;12.20;99.90;;;;;;5050832;28;20488;-82
2023/05/30 05:58:57;;;;;;;7.93;1.90;;;12.20;99.90;;;;;;5050998;28;20045;-82
2023/05/30 06:01:44;;;;;;;6.70;2.05;;;12.30;99.90;;;;;;5020131;28;20560;-78
2023/05/30 06:04:30;;;;;;;12.10;1.80;;;12.30;99.90;;;;;;5050411;28;20052;-79
2023/05/30 06:07:17;;;;;;;7.97;1.95;;;12.40;99.90;;;;;;5050185;28;20420;-80
2023/05/30 06:10:03;;;;;;;6.07;1.40;;;12.40;99.90;;;;;;5049844;28;20041;-81
2023/05/30 06:12:50;;;;;;;8.38;1.45;;;12.50;99.90;;;;;;5023035;28;20059;-80
2023/05/30 06:15:36;;;;;;;9.60;1.85;;;12.50;99.90;;;;;;5051132;28;20059;-82
2023/05/30 06:18:22;;;;;;;7.03;1.80;;;12.50;99.90;;;;;;5052836;28;20063;-82
2023/05/30 06:21:10;;;;;;;9.90;1.83;;;12.50;99.90;;;;;;5049291;28;20397;-82
2023/05/30 06:23:57;;;;;;;4.88;1.42;;;12.50;99.90;;;;;;5032690;28;20053;-79
2023/05/30 06:26:43;;;;;;;6.57;1.48;;;12.60;99.90;;;;;;5049924;28;20136;-81
2023/05/30 06:29:29;;;;;;;11.38;1.80;;;12.60;99.90;;;;;;5022693;28;20049;-76
2023/05/30 06:32:15;;;;;;;5.90;2.00;;;12.60;99.90;;;;;;5033338;28;20710;-77
2023/05/30 06:35:02;;;;;;;6.72;2.03;;;12.60;99.90;;;;;;5051139;28;20055;-80
2023/05/30 06:37:48;;;;;;;9.65;1.80;;;12.60;99.90;;;;;;5050507;28;20047;-76
2023/05/30 06:40:34;;;;;;;7.55;1.77;;;12.60;99.90;;;;;;5050781;28;20084;-78
2023/05/30 06:43:20;;;;;;;12.63;2.05;;;12.60;99.90;;;;;;5005645;28;20057;-78
2023/05/30 06:46:06;;;;;;;10.07;2.00;;;12.60;99.90;;;;;;5050948;28;20045;-80
2023/05/30 06:48:52;;;;;;;7.45;1.63;;;12.60;99.90;;;;;;5050074;28;20053;-76
2023/05/30 06:51:39;;;;;;;10.43;1.40;;;12.50;99.90;;;;;;5050613;28;20407;-75
2023/05/30 06:54:25;;;;;;;5.80;1.30;;;12.50;99.90;;;;;;5029069;28;20052;-79
2023/05/30 06:57:11;;;;;;;2.90;1.00;;;12.60;99.90;;;;;;5049299;28;20465;-77
2023/05/30 06:59:57;;;;;;;6.07;1.20;;;12.60;99.90;;;;;;5043668;28;20049;-76
2023/05/30 07:02:44;;;;;;;2.90;0.98;;;12.60;99.90;;;;;;5017023;28;20183;-76
2023/05/30 07:05:30;;;;;;;5.93;1.10;;;12.60;99.90;;;;;;5047537;28;20052;-77
2023/05/30 07:08:16;;;;;;;6.95;1.02;;;12.60;99.90;;;;;;5049434;28;20404;-77
2023/05/30 07:11:02;;;;;;;4.47;1.13;;;12.60;99.90;;;;;;5031380;28;20060;-79
2023/05/30 07:13:49;;;;;;;4.28;1.10;;;12.70;99.90;;;;;;5047146;28;20515;-78
2023/05/30 07:16:35;;;;;;;5.88;1.30;;;12.70;99.90;;;;;;5048062;28;20060;-84
2023/05/30 07:19:24;;;;;;;2.92;0.70;;;12.80;99.90;;;;;;5048062;28;20475;-79
2023/05/30 07:22:10;;;;;;;3.92;0.82;;;13.10;99.90;;;;;;5048837;28;20079;-79
2023/05/30 07:24:56;;;;;;;2.55;0.63;;;13.20;99.90;;;;;;5048267;28;20056;-77
2023/05/30 07:27:42;;;;;;;4.28;0.85;;;13.40;99.90;;;;;;5048973;28;20048;-77
2023/05/30 07:30:28;;;;;;;2.42;0.68;;;13.50;99.90;;;;;;5048224;28;20041;-77
2023/05/30 07:33:14;;;;;;;4.25;0.50;;;13.80;99.90;;;;;;5048150;28;20088;-77
2023/05/30 07:36:01;;;;;;;3.75;1.08;;;14.00;99.90;;;;;;5053290;28;20783;-78
2023/05/30 07:38:47;;;;;;;3.63;0.40;;;14.30;99.90;;;;;;5049683;28;20044;-79
2023/05/30 07:41:34;;;;;;;3.63;0.82;;;14.40;99.90;;;;;;5067629;28;20541;-82
2023/05/30 07:44:20;;;;;;;3.45;0.40;;;14.40;99.90;;;;;;5067595;28;20056;-80
2023/05/30 07:47:06;;;;;;;3.38;0.45;;;14.20;99.90;;;;;;5067337;28;20085;-77
2023/05/30 07:49:52;;;;;;;0.95;0.30;;;14.40;99.90;;;;;;5067490;28;20174;-77
2023/05/30 07:52:39;;;;;;;2.33;0.30;;;14.70;99.90;;;;;;5067380;28;20076;-77
2023/05/30 07:55:26;;;;;;;4.55;0.32;;;15.10;99.90;;;;;;5066729;28;20135;-75
2023/05/30 07:58:12;;;;;;;2.60;0.40;;;15.40;99.90;;;;;;5066853;28;20059;-74
2023/05/30 08:00:59;;;;;;;4.50;0.50;;;15.40;99.90;;;;;;5050205;28;20443;-74
2023/05/30 08:03:45;;;;;;;3.60;0.40;;;15.40;99.90;;;;;;5067906;28;20053;-75
2023/05/30 08:06:33;;;;;;;1.42;0.70;;;15.40;99.90;;;;;;5049560;28;20135;-73
2023/05/30 08:09:19;;;;;;;5.25;0.47;;;15.10;99.90;;;;;;5067836;28;20092;-76
2023/05/30 08:12:07;;;;;;;3.38;0.40;;;14.80;99.90;;;;;;5067567;28;20160;-78
2023/05/30 08:14:53;;;;;;;3.03;0.82;;;14.70;99.90;;;;;;5050814;28;20055;-74
2023/05/30 08:17:40;;;;;;;1.13;0.30;;;14.80;99.90;;;;;;5040442;28;20124;-76
2023/05/30 08:20:27;;;;;;;0.85;0.30;;;14.90;99.90;;;;;;5036701;28;20060;-74
2023/05/30 08:23:13;;;;;;;1.17;0.20;;;14.90;99.90;;;;;;5061929;28;20136;-74
2023/05/30 08:25:59;;;;;;;2.58;0.40;;;15.00;99.90;;;;;;5065906;28;20044;-75
2023/05/30 08:28:45;;;;;;;3.53;0.60;;;15.20;99.90;;;;;;5070470;28;20071;-72
2023/05/30 08:31:31;;;;;;;3.88;0.50;;;15.30;99.90;;;;;;5034451;28;20048;-75
2023/05/30 08:34:18;;;;;;;1.50;0.45;;;15.60;99.90;;;;;;5013895;28;20081;-75
2023/05/30 08:37:05;;;;;;;5.68;0.75;;;15.60;99.90;;;;;;5037348;28;20136;-74
2023/05/30 08:39:51;;;;;;;4.60;0.80;;;15.70;99.90;;;;;;5032713;28;20057;-76
2023/05/30 08:42:37;;;;;;;3.88;0.95;;;15.60;99.90;;;;;;5015495;28;20148;-76
2023/05/30 08:45:24;;;;;;;4.30;0.80;;;15.70;99.90;;;;;;5032911;28;20416;-80
2023/05/30 08:48:15;;;;;;;5.00;0.70;;;15.70;99.90;;;;;;5015386;28;20589;-72
2023/05/30 08:51:02;;;;;;;8.20;0.90;;;15.60;99.90;;;;;;5033115;28;20465;-73
2023/05/30 08:53:55;;;;;;;8.35;1.20;;;15.70;99.90;;;;;;5032464;28;20045;-76
2023/05/30 08:56:46;;;;;;;4.25;0.85;;;15.40;99.90;;;;;;5035995;28;20102;-75
2023/05/30 08:59:33;;;;;;;2.60;0.40;;;15.40;99.90;;;;;;5043541;28;20516;-77
2023/05/30 09:02:20;;;;;;;8.63;1.20;;;15.30;99.90;;;;;;5028795;28;20057;-73
2023/05/30 09:05:08;;;;;;;11.10;1.13;;;15.10;99.90;;;;;;5008271;28;20520;-75
2023/05/30 09:07:56;;;;;;;5.60;0.60;;;15.00;99.90;;;;;;5043647;28;20049;-77
2023/05/30 09:10:48;;;;;;;4.00;0.43;;;15.30;99.90;;;;;;5023308;28;20417;-74
2023/05/30 09:13:34;;;;;;;3.58;0.82;;;15.40;99.90;;;;;;5024169;28;20053;-70
2023/05/30 09:16:21;;;;;;;7.68;0.63;;;15.40;99.90;;;;;;5040396;28;20049;-72
2023/05/30 09:19:07;;;;;;;8.35;0.57;;;15.60;99.90;;;;;;5042107;28;20057;-73
2023/05/30 09:21:55;;;;;;;2.80;0.50;;;15.60;99.90;;;;;;5042840;28;20045;-76
2023/05/30 09:25:02;;;;;;;6.72;1.38;;;15.40;99.90;;;;;;5023733;28;20054;-78
2023/05/30 09:27:50;;;;;;;3.10;0.52;;;15.60;99.90;;;;;;5039261;28;20048;-80
2023/05/30 09:30:56;;;;;;;11.07;2.05;;;16.10;99.90;;;;;;5035015;28;20045;-80
2023/05/30 09:33:46;;;;;;;;;;;16.10;99.90;;;;;;5031197;28;20046;-79
2023/05/30 09:36:32;;;;;;;3.80;0.47;;;16.40;99.90;;;;;;5013419;28;19929;-79
2023/05/30 09:39:19;;;;;;;5.45;0.50;;;16.60;99.90;;;;;;5000321;28;20451;-79
2023/05/30 09:42:05;;;;;;;2.28;0.65;;;16.80;99.90;;;;;;5018683;28;20095;-78
2023/05/30 09:44:52;;;;;;;5.43;0.77;;;16.60;99.90;;;;;;5033814;28;20251;-80
2023/05/30 09:47:45;;;;;;;3.75;0.85;;;16.20;99.90;;;;;;5034314;28;20045;-81
2023/05/30 09:50:31;;;;;;;3.40;0.52;;;15.80;99.90;;;;;;5013669;28;20140;-76
2023/05/30 09:53:17;;;;;;;6.05;0.88;;;15.70;99.90;;;;;;5018036;28;20150;-81
2023/05/30 09:56:05;;;;;;;4.13;0.50;;;15.90;99.90;;;;;;5032263;28;20045;-78
2023/05/30 09:58:51;;;;;;;1.98;0.40;;;16.00;99.90;;;;;;5013625;28;20053;-74
2023/05/30 10:01:42;;;;;;;3.35;0.38;;;16.10;99.90;;;;;;5040912;28;20060;-79
2023/05/30 10:04:28;;;;;;;1.92;0.40;;;16.10;99.90;;;;;;5032841;28;20084;-78
2023/05/30 10:07:15;;;;;;;2.97;0.40;;;16.30;99.90;;;;;;5031637;28;20041;-78
2023/05/30 10:10:02;;;;;;;2.88;0.50;;;16.70;99.90;;;;;;5013756;28;20049;-79
2023/05/30 10:13:01;;;;;;;6.78;0.50;;;17.30;99.90;;;;;;5032007;28;20045;-79
2023/05/30 10:15:47;;;;;;;2.33;0.57;;;17.80;99.90;;;;;;4999746;28;20045;-79
2023/05/30 10:18:39;;;;;;;1.98;0.82;;;17.70;99.90;;;;;;5031220;28;20119;-78
2023/05/30 10:21:26;;;;;;;3.28;0.70;;;17.80;99.90;;;;;;5029029;28;20049;-76
2023/05/30 10:24:15;;;;;;;4.35;0.60;;;17.80;99.90;;;;;;5015186;28;20061;-76
2023/05/30 10:27:04;;;;;;;5.93;0.93;;;17.70;99.90;;;;;;5031062;28;20045;-77
2023/05/30 10:30:06;;;;;;;4.97;0.70;;;17.40;99.90;;;;;;5029864;28;20049;-76
2023/05/30 10:33:07;;;;;;;3.92;0.90;;;17.20;99.90;;;;;;5031148;28;20057;-76
2023/05/30 10:35:53;;;;;;;4.82;0.80;;;17.10;99.90;;;;;;5036137;28;20579;-77
2023/05/30 10:39:03;;;;;;;1.38;0.50;;;17.00;99.90;;;;;;5049805;28;20056;-79
2023/05/30 10:42:01;;;;;;;2.60;0.73;;;16.90;99.90;;;;;;5050150;28;20075;-76
2023/05/30 10:45:07;;;;;;;4.03;0.80;;;17.00;99.90;;;;;;5050763;28;20516;-77
2023/05/30 10:48:04;;;;;;;2.40;0.43;;;17.10;99.90;;;;;;5018439;28;20052;-78
2023/05/30 10:50:54;;;;;;;1.02;0.50;;;17.20;99.90;;;;;;5050441;28;20439;-79
2023/05/30 10:53:42;;;;;;;2.63;0.40;;;17.50;99.90;;;;;;5049967;28;20083;-79
2023/05/30 10:56:34;;;;;;;1.63;0.50;;;18.00;99.90;;;;;;5018375;28;20115;-80
2023/05/30 10:59:21;;;;;;;0.85;0.45;;;18.60;99.70;;;;;;5049779;28;20060;-79
2023/05/30 11:02:08;;;;;;;1.83;0.60;;;18.50;99.00;;;;;;5050915;28;20049;-79
2023/05/30 11:04:54;;;;;;;1.73;0.47;;;18.50;99.00;;;;;;5049956;28;20396;-78
2023/05/30 11:07:41;;;;;;;3.15;0.60;;;18.30;99.60;;;;;;5051596;28;20135;-78
2023/05/30 11:10:31;;;;;;;2.97;0.80;;;18.10;99.90;;;;;;5052091;28;20045;-77
2023/05/30 11:13:20;;;;;;;2.35;0.40;;;18.00;99.90;;;;;;5053084;28;20044;-79
2023/05/30 11:16:22;;;;;;;3.22;0.50;;;18.00;99.90;;;;;;5035055;28;20049;-77
2023/05/30 11:19:11;;;;;;;1.65;0.38;;;18.00;98.90;;;;;;5049588;28;20056;-75
2023/05/30 11:21:59;;;;;;;1.52;0.88;;;18.60;99.50;;;;;;5034105;28;20519;-78
2023/05/30 11:24:45;;;;;;;2.33;0.60;;;19.10;99.00;;;;;;5017902;28;20056;-85
2023/05/30 11:27:31;;;;;;;3.53;0.57;;;19.50;98.10;;;;;;5049584;28;20059;-82
2023/05/30 11:30:21;;;;;;;4.10;0.65;;;19.30;97.50;;;;;;5034387;28;20059;-79
2023/05/30 11:33:12;;;;;;;2.92;0.82;;;19.50;97.70;;;;;;5032742;28;20052;-79
2023/05/30 11:35:58;;;;;;;5.45;0.75;;;20.20;97.10;;;;;;5036142;28;20114;-74
2023/05/30 11:38:45;;;;;;;4.10;1.00;;;20.10;96.80;;;;;;5028403;28;20079;-72
2023/05/30 11:41:32;;;;;;;7.20;1.73;;;19.70;96.80;;;;;;5018166;28;20050;-76
2023/05/30 11:44:19;;;;;;;5.70;0.80;;;18.20;98.40;;;;;;5011587;28;20084;-77
2023/05/30 11:47:09;;;;;;;6.45;1.00;;;17.80;99.90;;;;;;5012813;28;20046;-77
2023/05/30 11:49:56;;;;;;;5.85;1.20;;;17.30;99.90;;;;;;5014145;28;20053;-84
2023/05/30 11:52:42;;;;;;;3.38;1.10;;;17.40;99.90;;;;;;5017612;28;20057;-79
2023/05/30 11:55:28;;;;;;;1.67;0.80;;;17.20;99.90;;;;;;5020190;28;20144;-78
2023/05/30 11:58:15;;;;;;;4.47;0.60;;;17.20;99.90;;;;;;5041498;28;20504;-75
2023/05/30 12:01:01;;;;;;;3.08;0.82;;;17.00;99.90;;;;;;5044487;28;20110;-75
2023/05/30 12:03:47;;;;;;;3.25;1.00;;;16.90;99.90;;;;;;5027896;28;20091;-75
2023/05/30 12:06:34;;;;;;;5.18;0.90;;;16.90;99.90;;;;;;5042582;28;20093;-79
2023/05/30 12:09:20;;;;;;;2.60;1.00;;;16.90;99.90;;;;;;5032579;28;20539;-78
2023/05/30 12:12:07;;;;;;;2.08;0.60;;;16.80;99.90;;;;;;5024318;28;20057;-80
2023/05/30 12:14:56;;;;;;;2.13;0.60;;;16.80;99.90;;;;;;5040744;28;20041;-82
2023/05/30 12:17:44;;;;;;;0.70;0.35;;;17.00;99.90;;;;;;5025742;28;20051;-75
2023/05/30 12:20:31;;;;;;;5.80;0.82;;;17.10;99.90;;;;;;5025798;28;20132;-75
2023/05/30 12:23:22;;;;;;;4.20;0.77;;;17.30;99.90;;;;;;5036343;28;20064;-73
2023/05/30 12:26:16;;;;;;;3.03;0.60;;;17.10;99.90;;;;;;5015695;28;20392;-75
2023/05/30 12:29:07;;;;;;;1.35;0.50;;;17.10;99.90;;;;;;5033826;28;20057;-76
2023/05/30 12:31:54;;;;;;;1.92;0.50;;;17.30;99.90;;;;;;5033173;28;20076;-79
2023/05/30 12:34:47;;;;;;;3.65;0.80;;;17.70;99.90;;;;;;5019076;28;20139;-83
2023/05/30 12:37:34;;;;;;;1.42;0.50;;;18.80;99.70;;;;;;5056586;28;20045;-75
2023/05/30 12:40:25;;;;;;;8.30;1.50;;;19.20;98.40;;;;;;5035408;28;20061;-74
2023/05/30 12:43:15;;;;;;;6.88;0.88;;;18.70;98.50;;;;;;5021009;28;20060;-78
2023/05/30 12:46:05;;;;;;;3.25;0.57;;;18.20;99.30;;;;;;5034998;28;20143;-77
2023/05/30 12:48:51;;;;;;;5.15;0.80;;;18.00;99.90;;;;;;5025412;28;20045;-77
2023/05/30 12:51:38;;;;;;;3.22;0.60;;;17.90;99.90;;;;;;5034172;28;20187;-75
2023/05/30 12:54:25;;;;;;;4.82;0.95;;;17.80;99.90;;;;;;5051313;28;20136;-74
2023/05/30 12:57:11;;;;;;;3.13;0.52;;;18.80;99.90;;;;;;5051495;28;20041;-74
2023/05/30 12:59:58;;;;;;;3.50;0.40;;;19.50;99.90;;;;;;5052556;28;20140;-80
2023/05/30 13:02:46;;;;;;;1.67;0.40;;;20.30;98.20;;;;;;5054357;28;20049;-74
2023/05/30 13:05:32;;;;;;;9.07;1.00;;;20.90;97.00;;;;;;5050817;28;20045;-82
2023/05/30 13:08:18;;;;;;;4.47;0.55;;;21.50;94.80;;;;;;5034845;28;20111;-78
2023/05/30 13:11:07;;;;;;;4.88;0.88;;;21.90;94.00;;;;;;5052631;28;20666;-74
2023/05/30 13:13:53;;;;;;;2.65;0.60;;;22.20;94.10;;;;;;5033124;28;20053;-74
2023/05/30 13:16:40;;;;;;;1.73;0.35;;;22.30;93.70;;;;;;5051155;28;20132;-71
2023/05/30 13:19:27;;;;;;;3.03;0.82;;;22.40;92.90;;;;;;5052237;28;20049;-74
2023/05/30 13:22:13;;;;;;;3.05;0.82;;;21.60;92.30;;;;;;5034252;28;20057;-76
2023/05/30 13:24:59;;;;;;;2.10;0.85;;;21.00;93.00;;;;;;5052212;28;20120;-76
2023/05/30 13:27:47;;;;;;;7.40;0.98;;;19.90;94.40;;;;;;5032905;28;20057;-72
2023/05/30 13:30:33;;;;;;;5.32;1.10;;;19.60;95.60;;;;;;5033479;28;20059;-71
2023/05/30 13:33:20;;;;;;;4.15;1.05;;;19.50;95.90;;;;;;5034996;28;20136;-73
2023/05/30 13:36:06;;;;;;;4.45;0.95;;;19.20;96.10;;;;;;5037297;28;20382;-74
2023/05/30 13:38:53;;;;;;;4.85;1.33;;;19.10;96.10;;;;;;5052525;28;20464;-76
2023/05/30 13:41:40;;;;;;;5.90;1.20;;;19.10;96.60;;;;;;5051422;28;20051;-73
2023/05/30 13:44:26;;;;;;;3.55;0.93;;;18.90;96.70;;;;;;5052340;28;20095;-74
2023/05/30 13:47:12;;;;;;;4.18;0.90;;;18.70;96.60;;;;;;5033600;28;20489;-71
2023/05/30 13:49:58;;;;;;;4.93;1.00;;;18.70;96.40;;;;;;5051561;28;20146;-72
2023/05/30 13:52:45;;;;;;;8.77;1.10;;;18.10;96.80;;;;;;5052169;28;20044;-74
2023/05/30 13:55:33;;;;;;;5.88;1.20;;;18.00;97.20;;;;;;5052476;28;20102;-74
2023/05/30 13:58:19;;;;;;;6.57;1.35;;;17.70;97.90;;;;;;5050955;28;20045;-75
2023/05/30 14:01:05;;;;;;;18.88;1.77;;;17.60;98.40;;;;;;5033836;28;20056;-77
2023/05/30 14:03:51;;;;;;;6.90;1.15;;;17.70;98.60;;;;;;5020076;28;20056;-76
2023/05/30 14:06:37;;;;;;;4.65;1.10;;;17.50;98.90;;;;;;5061433;28;20511;-76
2023/05/30 14:09:23;;;;;;;5.93;1.02;;;17.50;99.10;;;;;;5063587;28;20091;-76
2023/05/30 14:12:10;;;;;;;3.60;1.00;;;17.50;99.10;;;;;;5055264;28;20084;-76
2023/05/30 14:14:57;;;;;;;4.30;0.90;;;17.40;99.00;;;;;;5060830;28;20048;-75
2023/05/30 14:17:43;;;;;;;5.68;1.42;;;17.40;99.50;;;;;;5038071;28;20057;-75
2023/05/30 14:20:30;;;;;;;8.10;1.40;;;17.10;99.90;;;;;;5050607;28;20230;-76
2023/05/30 14:23:16;;;;;;;3.63;1.20;;;17.00;99.90;;;;;;5050404;28;20044;-77
2023/05/30 14:26:03;;;;;;;5.68;1.15;;;16.80;99.90;;;;;;5051340;28;20121;-74
2023/05/30 14:28:49;;;;;;;5.53;1.23;;;16.80;99.90;;;;;;5051672;28;20037;-74